createdAt,value
2024-02-12T06:21:25.643Z,6.20
2024-02-12T07:01:36.680Z,5.00
2024-02-12T07:05:08.522Z,5.00
2024-02-12T07:08:40.754Z,5.00
2024-02-12T07:11:48.655Z,5.00
2024-02-12T07:22:22.212Z,5.30
2024-02-12T08:43:47.698Z,5.30
2024-02-12T08:50:53.091Z,7.50
2024-02-12T08:57:27.126Z,7.70
2024-02-12T09:00:52.306Z,7.80
2024-02-12T09:04:23.610Z,7.80
2024-02-12T09:11:15.890Z,8.60
2024-02-12T09:14:43.472Z,8.80
2024-02-12T09:18:00.502Z,8.70
2024-02-12T09:21:32.904Z,8.80
2024-02-12T09:24:46.379Z,8.90
2024-02-12T09:28:35.361Z,9.10
2024-02-12T09:32:09.491Z,9.40
2024-02-12T09:35:28.506Z,9.60
2024-02-12T09:39:29.691Z,9.60
2024-02-12T09:42:57.154Z,9.60
2024-02-12T09:46:10.781Z,9.80
2024-02-12T09:49:53.162Z,10.00
2024-02-12T09:52:53.624Z,10.10
2024-02-12T09:55:52.659Z,10.10
2024-02-12T09:59:00.005Z,10.40
2024-02-12T10:02:27.711Z,10.60
2024-02-12T10:06:00.338Z,10.70
2024-02-12T10:12:21.848Z,10.80
2024-02-12T10:16:33.515Z,10.70
2024-02-12T10:20:26.903Z,10.60
2024-02-12T10:27:07.639Z,10.80
2024-02-12T10:30:30.571Z,11.00
2024-02-12T10:34:01.759Z,10.60
2024-02-12T10:38:13.307Z,10.40
2024-02-12T10:42:00.323Z,10.80
2024-02-12T10:45:44.909Z,11.10
2024-02-12T10:48:52.009Z,11.40
2024-02-12T10:51:54.571Z,11.30
2024-02-12T10:55:23.823Z,11.30
2024-02-12T10:58:27.236Z,11.50
2024-02-12T11:02:15.513Z,11.70
2024-02-12T11:05:40.118Z,11.60
2024-02-12T11:09:01.074Z,11.90
2024-02-12T11:12:13.248Z,12.00
2024-02-12T11:15:05.936Z,12.20
2024-02-12T11:18:38.279Z,12.50
2024-02-12T11:22:09.535Z,12.40
2024-02-12T11:25:23.093Z,12.20
2024-02-12T11:28:31.077Z,11.90
2024-02-12T11:31:45.177Z,12.00
2024-02-12T11:34:51.510Z,12.10
2024-02-12T11:42:22.341Z,11.80
2024-02-12T11:49:08.616Z,12.20
2024-02-12T11:56:09.419Z,12.70
2024-02-12T11:59:40.211Z,12.80
2024-02-12T12:02:52.083Z,12.90
2024-02-12T12:06:20.693Z,13.10
2024-02-12T12:13:22.580Z,13.40
2024-02-12T12:20:08.793Z,13.40
2024-02-12T12:24:10.824Z,13.30
2024-02-12T12:27:27.911Z,13.30
2024-02-12T12:31:24.203Z,13.00
2024-02-12T12:37:49.959Z,12.50
2024-02-12T12:41:47.402Z,12.40
2024-02-12T12:45:06.010Z,12.40
2024-02-12T12:48:35.144Z,12.50
2024-02-12T12:52:03.617Z,12.50
2024-02-12T12:55:09.257Z,12.50
2024-02-12T12:58:28.359Z,12.40
2024-02-12T13:01:53.584Z,12.10
2024-02-12T13:05:10.083Z,12.30
2024-02-12T13:08:22.248Z,12.60
2024-02-12T13:11:58.884Z,12.90
2024-02-12T13:15:51.686Z,12.70
2024-02-12T13:19:33.823Z,11.90
2024-02-12T13:24:05.501Z,11.50
2024-02-12T13:30:09.223Z,12.20
2024-02-12T13:33:23.194Z,12.20
2024-02-12T13:37:05.013Z,12.10
2024-02-12T13:40:23.195Z,11.90
2024-02-12T13:43:38.872Z,11.80
2024-02-12T13:50:10.527Z,12.30
2024-02-12T13:54:19.485Z,12.60
2024-02-12T13:58:13.339Z,13.00
2024-02-12T14:01:23.950Z,13.00
2024-02-12T14:04:55.715Z,12.30
2024-02-12T14:08:26.106Z,11.80
2024-02-12T14:13:08.437Z,11.50
2024-02-12T14:16:04.058Z,11.40
2024-02-12T14:19:52.129Z,11.30
2024-02-12T14:26:33.188Z,10.60
2024-02-12T14:29:52.272Z,10.70
2024-02-12T14:33:23.991Z,11.00
2024-02-12T14:40:06.295Z,11.40
2024-02-12T14:43:27.267Z,11.50
2024-02-12T14:47:10.720Z,11.60
2024-02-12T14:50:44.109Z,11.70
2024-02-12T14:53:58.613Z,11.80
2024-02-12T14:56:58.161Z,11.80
2024-02-12T15:00:32.295Z,11.60
2024-02-12T15:04:01.097Z,11.20
2024-02-12T15:07:54.034Z,10.70
2024-02-12T15:11:35.015Z,10.30
2024-02-12T15:23:22.019Z,10.00
2024-02-12T15:32:18.775Z,9.50
2024-02-12T15:39:18.164Z,9.30
2024-02-12T15:43:00.671Z,9.30
2024-02-12T15:46:13.887Z,9.20
2024-02-12T15:48:42.805Z,9.10
2024-02-12T15:51:13.983Z,9.00
2024-02-12T15:53:45.846Z,9.00
2024-02-12T15:56:18.592Z,8.90
2024-02-12T15:58:49.147Z,8.90
2024-02-12T16:01:21.581Z,8.80
2024-02-12T16:03:50.032Z,8.70
2024-02-12T16:06:18.606Z,8.70
2024-02-12T16:08:47.916Z,8.70
2024-02-12T16:11:51.328Z,8.60
2024-02-12T16:18:50.141Z,8.30
2024-02-12T16:21:54.054Z,8.00
2024-02-12T16:25:04.237Z,7.90
2024-02-12T16:28:45.259Z,7.70
2024-02-12T16:32:02.692Z,7.70
2024-02-12T16:35:27.900Z,7.40
2024-02-12T16:38:49.372Z,7.30
2024-02-12T16:45:45.369Z,7.00
2024-02-12T16:48:58.042Z,6.80
2024-02-12T16:52:05.051Z,6.60
2024-02-12T16:55:34.810Z,6.30
2024-02-12T16:58:53.986Z,6.20
2024-02-12T17:02:08.875Z,6.00
2024-02-12T17:05:18.542Z,5.80
2024-02-12T17:08:59.472Z,5.60
2024-02-12T17:12:03.294Z,5.50
2024-02-12T17:23:10.685Z,5.50
2024-02-12T17:27:32.393Z,5.20
2024-02-12T17:31:11.064Z,5.00
2024-02-12T17:50:41.225Z,5.10
2024-02-12T19:38:16.058Z,4.70
2024-02-12T19:44:19.977Z,3.90
